sensor_id;sensor_type;location;lat;lon;timestamp;P1;durP1;ratioP1;P2;durP2;ratioP2
24517;SDS011;12678;51.336;12.406;2023-06-22T00:00:56;11.50;;;6.47;;
24517;SDS011;12678;51.336;12.406;2023-06-22T00:03:22;11.57;;;6.30;;
24517;SDS011;12678;51.336;12.406;2023-06-22T00:05:52;11.68;;;6.72;;
24517;SDS011;12678;51.336;12.406;2023-06-22T00:08:18;11.00;;;6.85;;
24517;SDS011;12678;51.336;12.406;2023-06-22T00:10:44;15.07;;;6.40;;
24517;SDS011;12678;51.336;12.406;2023-06-22T00:13:11;13.75;;;5.90;;
24517;SDS011;12678;51.336;12.406;2023-06-22T00:15:39;11.15;;;6.53;;
24517;SDS011;12678;51.336;12.406;2023-06-22T00:18:06;12.85;;;6.72;;
24517;SDS011;12678;51.336;12.406;2023-06-22T00:20:33;11.73;;;6.18;;
24517;SDS011;12678;51.336;12.406;2023-06-22T00:23:02;10.98;;;6.40;;
24517;SDS011;12678;51.336;12.406;2023-06-22T00:25:33;12.60;;;6.97;;
24517;SDS011;12678;51.336;12.406;2023-06-22T00:28:03;10.70;;;6.55;;
24517;SDS011;12678;51.336;12.406;2023-06-22T00:30:30;9.77;;;6.35;;
24517;SDS011;12678;51.336;12.406;2023-06-22T00:32:56;12.77;;;6.55;;
24517;SDS011;12678;51.336;12.406;2023-06-22T00:35:23;12.95;;;6.80;;
24517;SDS011;12678;51.336;12.406;2023-06-22T00:37:54;11.63;;;6.28;;
24517;SDS011;12678;51.336;12.406;2023-06-22T00:40:25;10.77;;;6.75;;
24517;SDS011;12678;51.336;12.406;2023-06-22T00:42:55;11.70;;;6.40;;
24517;SDS011;12678;51.336;12.406;2023-06-22T00:45:21;11.65;;;6.85;;
24517;SDS011;12678;51.336;12.406;2023-06-22T00:47:55;11.68;;;6.95;;
24517;SDS011;12678;51.336;12.406;2023-06-22T00:50:23;10.82;;;7.30;;
24517;SDS011;12678;51.336;12.406;2023-06-22T00:52:51;11.00;;;6.57;;
24517;SDS011;12678;51.336;12.406;2023-06-22T00:55:19;13.32;;;6.53;;
24517;SDS011;12678;51.336;12.406;2023-06-22T00:57:46;11.15;;;6.85;;
24517;SDS011;12678;51.336;12.406;2023-06-22T01:00:13;16.10;;;6.85;;
24517;SDS011;12678;51.336;12.406;2023-06-22T01:02:42;9.85;;;6.53;;
24517;SDS011;12678;51.336;12.406;2023-06-22T01:05:10;11.18;;;6.90;;
24517;SDS011;12678;51.336;12.406;2023-06-22T01:10:16;12.25;;;7.20;;
24517;SDS011;12678;51.336;12.406;2023-06-22T01:12:53;12.90;;;7.35;;
24517;SDS011;12678;51.336;12.406;2023-06-22T01:15:23;11.60;;;7.05;;
24517;SDS011;12678;51.336;12.406;2023-06-22T01:17:55;12.35;;;7.40;;
24517;SDS011;12678;51.336;12.406;2023-06-22T01:20:22;12.77;;;6.95;;
24517;SDS011;12678;51.336;12.406;2023-06-22T01:22:56;11.88;;;7.68;;
24517;SDS011;12678;51.336;12.406;2023-06-22T01:25:40;13.30;;;6.95;;
24517;SDS011;12678;51.336;12.406;2023-06-22T01:28:32;11.50;;;7.22;;
24517;SDS011;12678;51.336;12.406;2023-06-22T01:31:10;12.35;;;6.97;;
24517;SDS011;12678;51.336;12.406;2023-06-22T01:33:41;12.63;;;7.63;;
24517;SDS011;12678;51.336;12.406;2023-06-22T01:36:08;11.32;;;6.82;;
24517;SDS011;12678;51.336;12.406;2023-06-22T01:38:34;13.40;;;8.05;;
24517;SDS011;12678;51.336;12.406;2023-06-22T01:41:02;13.68;;;7.40;;
24517;SDS011;12678;51.336;12.406;2023-06-22T01:43:28;14.90;;;7.57;;
24517;SDS011;12678;51.336;12.406;2023-06-22T01:45:55;12.88;;;7.15;;
24517;SDS011;12678;51.336;12.406;2023-06-22T01:48:22;14.90;;;8.02;;
24517;SDS011;12678;51.336;12.406;2023-06-22T01:50:48;13.43;;;8.65;;
24517;SDS011;12678;51.336;12.406;2023-06-22T01:53:14;14.65;;;9.25;;
24517;SDS011;12678;51.336;12.406;2023-06-22T01:55:40;12.48;;;7.75;;
24517;SDS011;12678;51.336;12.406;2023-06-22T01:58:06;16.60;;;7.90;;
24517;SDS011;12678;51.336;12.406;2023-06-22T02:00:33;14.90;;;7.93;;
24517;SDS011;12678;51.336;12.406;2023-06-22T02:03:13;20.13;;;8.75;;
24517;SDS011;12678;51.336;12.406;2023-06-22T02:05:46;14.85;;;8.05;;
24517;SDS011;12678;51.336;12.406;2023-06-22T02:08:19;14.15;;;7.82;;
24517;SDS011;12678;51.336;12.406;2023-06-22T02:10:56;14.35;;;7.90;;
24517;SDS011;12678;51.336;12.406;2023-06-22T02:13:24;12.75;;;8.70;;
24517;SDS011;12678;51.336;12.406;2023-06-22T02:15:50;12.93;;;7.40;;
24517;SDS011;12678;51.336;12.406;2023-06-22T02:18:16;18.10;;;7.43;;
24517;SDS011;12678;51.336;12.406;2023-06-22T02:20:42;15.32;;;7.63;;
24517;SDS011;12678;51.336;12.406;2023-06-22T02:23:08;13.40;;;7.40;;
24517;SDS011;12678;51.336;12.406;2023-06-22T02:25:35;16.65;;;8.85;;
24517;SDS011;12678;51.336;12.406;2023-06-22T02:28:01;13.77;;;8.15;;
24517;SDS011;12678;51.336;12.406;2023-06-22T02:30:27;15.32;;;8.25;;
24517;SDS011;12678;51.336;12.406;2023-06-22T02:32:52;12.88;;;8.18;;
24517;SDS011;12678;51.336;12.406;2023-06-22T02:35:27;12.65;;;8.32;;
24517;SDS011;12678;51.336;12.406;2023-06-22T02:38:00;15.25;;;8.85;;
24517;SDS011;12678;51.336;12.406;2023-06-22T02:40:27;13.77;;;8.15;;
24517;SDS011;12678;51.336;12.406;2023-06-22T02:42:53;13.68;;;7.47;;
24517;SDS011;12678;51.336;12.406;2023-06-22T02:45:18;11.90;;;7.20;;
24517;SDS011;12678;51.336;12.406;2023-06-22T02:47:44;14.20;;;8.38;;
24517;SDS011;12678;51.336;12.406;2023-06-22T02:50:10;18.83;;;9.35;;
24517;SDS011;12678;51.336;12.406;2023-06-22T02:52:36;15.20;;;8.00;;
24517;SDS011;12678;51.336;12.406;2023-06-22T02:55:01;13.70;;;8.70;;
24517;SDS011;12678;51.336;12.406;2023-06-22T02:57:27;17.67;;;10.52;;
24517;SDS011;12678;51.336;12.406;2023-06-22T02:59:53;14.55;;;7.90;;
24517;SDS011;12678;51.336;12.406;2023-06-22T03:02:20;14.52;;;10.52;;
24517;SDS011;12678;51.336;12.406;2023-06-22T03:04:46;19.80;;;9.38;;
24517;SDS011;12678;51.336;12.406;2023-06-22T03:07:14;12.70;;;8.00;;
24517;SDS011;12678;51.336;12.406;2023-06-22T03:09:42;15.43;;;9.45;;
24517;SDS011;12678;51.336;12.406;2023-06-22T03:12:08;17.83;;;8.23;;
24517;SDS011;12678;51.336;12.406;2023-06-22T03:14:34;20.58;;;9.57;;
24517;SDS011;12678;51.336;12.406;2023-06-22T03:17:00;17.50;;;8.60;;
24517;SDS011;12678;51.336;12.406;2023-06-22T03:19:27;14.13;;;8.20;;
24517;SDS011;12678;51.336;12.406;2023-06-22T03:21:54;12.60;;;7.75;;
24517;SDS011;12678;51.336;12.406;2023-06-22T03:24:20;16.63;;;8.70;;
24517;SDS011;12678;51.336;12.406;2023-06-22T03:26:45;12.32;;;8.40;;
24517;SDS011;12678;51.336;12.406;2023-06-22T03:29:12;15.23;;;8.38;;
24517;SDS011;12678;51.336;12.406;2023-06-22T03:31:38;17.85;;;9.00;;
24517;SDS011;12678;51.336;12.406;2023-06-22T03:34:04;17.17;;;10.23;;
24517;SDS011;12678;51.336;12.406;2023-06-22T03:36:29;21.50;;;10.07;;
24517;SDS011;12678;51.336;12.406;2023-06-22T03:38:55;16.73;;;9.93;;
24517;SDS011;12678;51.336;12.406;2023-06-22T03:41:21;20.67;;;11.57;;
24517;SDS011;12678;51.336;12.406;2023-06-22T03:43:46;21.52;;;11.13;;
24517;SDS011;12678;51.336;12.406;2023-06-22T03:46:12;15.10;;;9.45;;
24517;SDS011;12678;51.336;12.406;2023-06-22T03:48:38;27.10;;;10.75;;
24517;SDS011;12678;51.336;12.406;2023-06-22T03:51:03;20.75;;;10.70;;
24517;SDS011;12678;51.336;12.406;2023-06-22T03:53:29;17.60;;;10.07;;
24517;SDS011;12678;51.336;12.406;2023-06-22T03:55:55;16.10;;;8.95;;
24517;SDS011;12678;51.336;12.406;2023-06-22T03:58:21;21.23;;;8.85;;
24517;SDS011;12678;51.336;12.406;2023-06-22T04:00:50;19.05;;;9.43;;
24517;SDS011;12678;51.336;12.406;2023-06-22T04:03:17;17.05;;;10.45;;
24517;SDS011;12678;51.336;12.406;2023-06-22T04:05:44;17.75;;;9.57;;
24517;SDS011;12678;51.336;12.406;2023-06-22T04:08:10;15.30;;;8.45;;
24517;SDS011;12678;51.336;12.406;2023-06-22T04:10:37;15.80;;;9.32;;
24517;SDS011;12678;51.336;12.406;2023-06-22T04:13:03;19.92;;;9.73;;
24517;SDS011;12678;51.336;12.406;2023-06-22T04:15:29;13.98;;;9.60;;
24517;SDS011;12678;51.336;12.406;2023-06-22T04:17:54;15.05;;;9.20;;
24517;SDS011;12678;51.336;12.406;2023-06-22T04:20:21;13.88;;;9.02;;
24517;SDS011;12678;51.336;12.406;2023-06-22T04:22:46;21.13;;;10.77;;
24517;SDS011;12678;51.336;12.406;2023-06-22T04:25:12;17.10;;;9.32;;
24517;SDS011;12678;51.336;12.406;2023-06-22T04:27:39;16.35;;;8.30;;
24517;SDS011;12678;51.336;12.406;2023-06-22T04:30:06;14.20;;;9.32;;
24517;SDS011;12678;51.336;12.406;2023-06-22T04:32:33;13.50;;;8.45;;
24517;SDS011;12678;51.336;12.406;2023-06-22T04:35:05;16.52;;;9.02;;
24517;SDS011;12678;51.336;12.406;2023-06-22T04:37:31;16.80;;;8.73;;
24517;SDS011;12678;51.336;12.406;2023-06-22T04:39:57;15.52;;;9.05;;
24517;SDS011;12678;51.336;12.406;2023-06-22T04:42:25;20.08;;;9.45;;
24517;SDS011;12678;51.336;12.406;2023-06-22T04:44:51;15.38;;;9.27;;
24517;SDS011;12678;51.336;12.406;2023-06-22T04:47:17;18.58;;;8.93;;
24517;SDS011;12678;51.336;12.406;2023-06-22T04:49:43;17.02;;;8.85;;
24517;SDS011;12678;51.336;12.406;2023-06-22T04:52:09;12.38;;;8.10;;
24517;SDS011;12678;51.336;12.406;2023-06-22T04:54:37;19.80;;;10.23;;
24517;SDS011;12678;51.336;12.406;2023-06-22T04:57:06;18.38;;;8.85;;
24517;SDS011;12678;51.336;12.406;2023-06-22T04:59:35;15.52;;;9.45;;
24517;SDS011;12678;51.336;12.406;2023-06-22T05:02:04;18.40;;;9.52;;
24517;SDS011;12678;51.336;12.406;2023-06-22T05:04:30;19.05;;;10.43;;
24517;SDS011;12678;51.336;12.406;2023-06-22T05:06:56;17.70;;;10.70;;
24517;SDS011;12678;51.336;12.406;2023-06-22T05:09:22;14.02;;;9.45;;
24517;SDS011;12678;51.336;12.406;2023-06-22T05:11:49;14.73;;;8.95;;
24517;SDS011;12678;51.336;12.406;2023-06-22T05:14:16;17.48;;;10.30;;
24517;SDS011;12678;51.336;12.406;2023-06-22T05:16:42;19.40;;;10.30;;
24517;SDS011;12678;51.336;12.406;2023-06-22T05:19:08;15.75;;;9.50;;
24517;SDS011;12678;51.336;12.406;2023-06-22T05:21:34;15.68;;;9.05;;
24517;SDS011;12678;51.336;12.406;2023-06-22T05:24:00;14.85;;;9.02;;
24517;SDS011;12678;51.336;12.406;2023-06-22T05:26:28;15.00;;;8.35;;
24517;SDS011;12678;51.336;12.406;2023-06-22T05:28:54;15.90;;;8.55;;
24517;SDS011;12678;51.336;12.406;2023-06-22T05:31:20;15.88;;;8.35;;
24517;SDS011;12678;51.336;12.406;2023-06-22T05:33:46;14.30;;;8.35;;
24517;SDS011;12678;51.336;12.406;2023-06-22T05:36:13;15.55;;;8.38;;
24517;SDS011;12678;51.336;12.406;2023-06-22T05:38:39;13.65;;;8.50;;
24517;SDS011;12678;51.336;12.406;2023-06-22T05:41:05;13.55;;;8.45;;
24517;SDS011;12678;51.336;12.406;2023-06-22T05:43:31;17.73;;;10.23;;
24517;SDS011;12678;51.336;12.406;2023-06-22T05:45:57;17.85;;;10.20;;
24517;SDS011;12678;51.336;12.406;2023-06-22T05:48:23;19.45;;;10.98;;
24517;SDS011;12678;51.336;12.406;2023-06-22T05:50:49;16.80;;;9.98;;
24517;SDS011;12678;51.336;12.406;2023-06-22T05:53:15;19.60;;;9.68;;
24517;SDS011;12678;51.336;12.406;2023-06-22T05:55:40;16.45;;;9.43;;
24517;SDS011;12678;51.336;12.406;2023-06-22T05:58:07;16.30;;;9.10;;
24517;SDS011;12678;51.336;12.406;2023-06-22T06:00:33;18.50;;;8.95;;
24517;SDS011;12678;51.336;12.406;2023-06-22T06:02:59;12.65;;;8.30;;
24517;SDS011;12678;51.336;12.406;2023-06-22T06:05:29;12.25;;;7.78;;
24517;SDS011;12678;51.336;12.406;2023-06-22T06:07:55;14.65;;;8.77;;
24517;SDS011;12678;51.336;12.406;2023-06-22T06:10:21;16.45;;;8.25;;
24517;SDS011;12678;51.336;12.406;2023-06-22T06:12:47;12.40;;;7.40;;
24517;SDS011;12678;51.336;12.406;2023-06-22T06:15:12;14.75;;;7.70;;
24517;SDS011;12678;51.336;12.406;2023-06-22T06:17:45;14.85;;;8.80;;
24517;SDS011;12678;51.336;12.406;2023-06-22T06:20:15;22.40;;;8.88;;
24517;SDS011;12678;51.336;12.406;2023-06-22T06:22:42;13.45;;;8.05;;
24517;SDS011;12678;51.336;12.406;2023-06-22T06:25:08;14.00;;;7.78;;
24517;SDS011;12678;51.336;12.406;2023-06-22T06:27:34;10.85;;;7.45;;
24517;SDS011;12678;51.336;12.406;2023-06-22T06:30:00;11.32;;;7.70;;
24517;SDS011;12678;51.336;12.406;2023-06-22T06:32:25;15.30;;;7.82;;
24517;SDS011;12678;51.336;12.406;2023-06-22T06:34:51;15.15;;;6.35;;
24517;SDS011;12678;51.336;12.406;2023-06-22T06:37:17;15.23;;;7.30;;
24517;SDS011;12678;51.336;12.406;2023-06-22T06:39:43;12.65;;;7.15;;
24517;SDS011;12678;51.336;12.406;2023-06-22T06:42:09;12.02;;;6.53;;
24517;SDS011;12678;51.336;12.406;2023-06-22T06:44:36;15.32;;;7.18;;
24517;SDS011;12678;51.336;12.406;2023-06-22T06:47:03;9.55;;;6.38;;
24517;SDS011;12678;51.336;12.406;2023-06-22T06:49:29;10.35;;;6.43;;
24517;SDS011;12678;51.336;12.406;2023-06-22T06:51:55;10.40;;;6.70;;
24517;SDS011;12678;51.336;12.406;2023-06-22T06:54:21;8.23;;;5.80;;
24517;SDS011;12678;51.336;12.406;2023-06-22T06:56:47;12.00;;;7.25;;
24517;SDS011;12678;51.336;12.406;2023-06-22T06:59:13;9.05;;;6.18;;
24517;SDS011;12678;51.336;12.406;2023-06-22T07:01:40;10.38;;;6.78;;
24517;SDS011;12678;51.336;12.406;2023-06-22T07:04:06;10.93;;;7.05;;
24517;SDS011;12678;51.336;12.406;2023-06-22T07:06:32;11.18;;;6.60;;
24517;SDS011;12678;51.336;12.406;2023-06-22T07:08:59;9.57;;;6.15;;
24517;SDS011;12678;51.336;12.406;2023-06-22T07:11:25;9.98;;;6.43;;
24517;SDS011;12678;51.336;12.406;2023-06-22T07:13:51;9.48;;;7.05;;
24517;SDS011;12678;51.336;12.406;2023-06-22T07:16:17;17.70;;;6.65;;
24517;SDS011;12678;51.336;12.406;2023-06-22T07:18:43;8.52;;;6.07;;
24517;SDS011;12678;51.336;12.406;2023-06-22T07:21:09;11.65;;;6.28;;
24517;SDS011;12678;51.336;12.406;2023-06-22T07:23:34;12.13;;;6.88;;
24517;SDS011;12678;51.336;12.406;2023-06-22T07:26:00;12.60;;;6.85;;
24517;SDS011;12678;51.336;12.406;2023-06-22T07:28:31;10.93;;;5.65;;
24517;SDS011;12678;51.336;12.406;2023-06-22T07:31:01;8.50;;;5.90;;
24517;SDS011;12678;51.336;12.406;2023-06-22T07:33:28;12.05;;;5.68;;
24517;SDS011;12678;51.336;12.406;2023-06-22T07:35:54;17.65;;;7.03;;
24517;SDS011;12678;51.336;12.406;2023-06-22T07:38:20;13.40;;;6.82;;
24517;SDS011;12678;51.336;12.406;2023-06-22T07:40:45;11.05;;;5.85;;
24517;SDS011;12678;51.336;12.406;2023-06-22T07:43:11;9.70;;;6.50;;
24517;SDS011;12678;51.336;12.406;2023-06-22T07:45:37;10.63;;;6.25;;
24517;SDS011;12678;51.336;12.406;2023-06-22T07:48:05;9.18;;;6.22;;
24517;SDS011;12678;51.336;12.406;2023-06-22T07:50:30;12.27;;;6.80;;
24517;SDS011;12678;51.336;12.406;2023-06-22T07:52:56;9.95;;;6.25;;
24517;SDS011;12678;51.336;12.406;2023-06-22T07:55:22;8.90;;;6.53;;
24517;SDS011;12678;51.336;12.406;2023-06-22T07:57:48;10.88;;;6.93;;
24517;SDS011;12678;51.336;12.406;2023-06-22T08:00:16;11.55;;;6.75;;
24517;SDS011;12678;51.336;12.406;2023-06-22T08:02:44;10.90;;;7.30;;
24517;SDS011;12678;51.336;12.406;2023-06-22T08:05:10;11.15;;;7.05;;
24517;SDS011;12678;51.336;12.406;2023-06-22T08:07:36;10.05;;;6.15;;
24517;SDS011;12678;51.336;12.406;2023-06-22T08:10:03;14.20;;;6.47;;
24517;SDS011;12678;51.336;12.406;2023-06-22T08:12:29;8.35;;;5.78;;
24517;SDS011;12678;51.336;12.406;2023-06-22T08:14:55;7.40;;;5.75;;
24517;SDS011;12678;51.336;12.406;2023-06-22T08:17:22;9.32;;;6.10;;
24517;SDS011;12678;51.336;12.406;2023-06-22T08:19:48;8.80;;;5.85;;
24517;SDS011;12678;51.336;12.406;2023-06-22T08:22:15;9.52;;;5.93;;
24517;SDS011;12678;51.336;12.406;2023-06-22T08:24:41;8.32;;;6.18;;
24517;SDS011;12678;51.336;12.406;2023-06-22T08:27:07;11.60;;;6.03;;
24517;SDS011;12678;51.336;12.406;2023-06-22T08:29:41;8.55;;;5.70;;
24517;SDS011;12678;51.336;12.406;2023-06-22T08:32:14;8.90;;;5.57;;
24517;SDS011;12678;51.336;12.406;2023-06-22T08:34:40;7.55;;;5.55;;
24517;SDS011;12678;51.336;12.406;2023-06-22T08:37:08;8.40;;;5.70;;
24517;SDS011;12678;51.336;12.406;2023-06-22T08:39:34;7.43;;;5.78;;
24517;SDS011;12678;51.336;12.406;2023-06-22T08:42:00;9.70;;;7.13;;
24517;SDS011;12678;51.336;12.406;2023-06-22T08:44:25;11.82;;;5.72;;
24517;SDS011;12678;51.336;12.406;2023-06-22T08:46:51;7.90;;;5.68;;
24517;SDS011;12678;51.336;12.406;2023-06-22T08:49:17;9.32;;;6.30;;
24517;SDS011;12678;51.336;12.406;2023-06-22T08:51:42;8.05;;;6.00;;
24517;SDS011;12678;51.336;12.406;2023-06-22T08:54:11;7.80;;;5.22;;
24517;SDS011;12678;51.336;12.406;2023-06-22T08:56:36;8.65;;;5.72;;
24517;SDS011;12678;51.336;12.406;2023-06-22T08:59:02;10.18;;;6.18;;
24517;SDS011;12678;51.336;12.406;2023-06-22T09:01:28;9.45;;;6.05;;
24517;SDS011;12678;51.336;12.406;2023-06-22T09:03:53;9.13;;;5.47;;
24517;SDS011;12678;51.336;12.406;2023-06-22T09:06:21;8.63;;;6.45;;
24517;SDS011;12678;51.336;12.406;2023-06-22T09:08:46;6.93;;;5.30;;
24517;SDS011;12678;51.336;12.406;2023-06-22T09:11:13;7.97;;;5.93;;
24517;SDS011;12678;51.336;12.406;2023-06-22T09:13:39;6.72;;;5.35;;
24517;SDS011;12678;51.336;12.406;2023-06-22T09:16:04;9.68;;;6.30;;
24517;SDS011;12678;51.336;12.406;2023-06-22T09:18:30;7.43;;;4.78;;
24517;SDS011;12678;51.336;12.406;2023-06-22T09:20:56;8.13;;;6.03;;
24517;SDS011;12678;51.336;12.406;2023-06-22T09:23:22;7.63;;;5.20;;
24517;SDS011;12678;51.336;12.406;2023-06-22T09:25:47;8.95;;;4.90;;
24517;SDS011;12678;51.336;12.406;2023-06-22T09:28:16;12.38;;;6.22;;
24517;SDS011;12678;51.336;12.406;2023-06-22T09:30:45;7.60;;;4.75;;
24517;SDS011;12678;51.336;12.406;2023-06-22T09:33:10;5.40;;;4.28;;
24517;SDS011;12678;51.336;12.406;2023-06-22T09:35:36;7.20;;;4.88;;
24517;SDS011;12678;51.336;12.406;2023-06-22T09:38:02;6.00;;;4.40;;
24517;SDS011;12678;51.336;12.406;2023-06-22T09:40:28;5.80;;;4.60;;
24517;SDS011;12678;51.336;12.406;2023-06-22T09:42:54;11.00;;;4.93;;
24517;SDS011;12678;51.336;12.406;2023-06-22T09:45:19;5.63;;;4.35;;
24517;SDS011;12678;51.336;12.406;2023-06-22T09:47:45;8.38;;;4.70;;
24517;SDS011;12678;51.336;12.406;2023-06-22T09:50:10;8.45;;;4.32;;
24517;SDS011;12678;51.336;12.406;2023-06-22T09:52:37;7.63;;;4.35;;
24517;SDS011;12678;51.336;12.406;2023-06-22T09:55:03;6.30;;;4.53;;
24517;SDS011;12678;51.336;12.406;2023-06-22T09:57:29;8.32;;;4.93;;
24517;SDS011;12678;51.336;12.406;2023-06-22T09:59:55;13.40;;;5.05;;
24517;SDS011;12678;51.336;12.406;2023-06-22T10:02:21;6.68;;;4.88;;
24517;SDS011;12678;51.336;12.406;2023-06-22T10:04:47;12.48;;;4.63;;
24517;SDS011;12678;51.336;12.406;2023-06-22T10:07:13;7.45;;;6.03;;
24517;SDS011;12678;51.336;12.406;2023-06-22T10:09:38;9.23;;;4.82;;
24517;SDS011;12678;51.336;12.406;2023-06-22T10:12:04;7.05;;;4.32;;
24517;SDS011;12678;51.336;12.406;2023-06-22T10:14:30;7.10;;;5.32;;
24517;SDS011;12678;51.336;12.406;2023-06-22T10:16:56;7.15;;;4.20;;
24517;SDS011;12678;51.336;12.406;2023-06-22T10:19:22;7.07;;;4.60;;
24517;SDS011;12678;51.336;12.406;2023-06-22T10:21:47;7.78;;;4.85;;
24517;SDS011;12678;51.336;12.406;2023-06-22T10:24:13;7.63;;;4.38;;
24517;SDS011;12678;51.336;12.406;2023-06-22T10:26:38;6.95;;;4.32;;
24517;SDS011;12678;51.336;12.406;2023-06-22T10:29:04;6.63;;;5.10;;
24517;SDS011;12678;51.336;12.406;2023-06-22T10:31:30;5.72;;;4.50;;
24517;SDS011;12678;51.336;12.406;2023-06-22T10:33:55;6.53;;;4.55;;
24517;SDS011;12678;51.336;12.406;2023-06-22T10:36:21;6.30;;;4.55;;
24517;SDS011;12678;51.336;12.406;2023-06-22T10:38:47;6.32;;;4.47;;
24517;SDS011;12678;51.336;12.406;2023-06-22T10:41:13;8.07;;;4.47;;
24517;SDS011;12678;51.336;12.406;2023-06-22T10:43:39;6.90;;;4.65;;
24517;SDS011;12678;51.336;12.406;2023-06-22T10:46:05;5.55;;;4.15;;
24517;SDS011;12678;51.336;12.406;2023-06-22T10:48:31;6.20;;;4.38;;
24517;SDS011;12678;51.336;12.406;2023-06-22T10:50:57;6.75;;;4.10;;
24517;SDS011;12678;51.336;12.406;2023-06-22T10:53:23;6.55;;;4.47;;
24517;SDS011;12678;51.336;12.406;2023-06-22T10:55:48;6.32;;;4.50;;
24517;SDS011;12678;51.336;12.406;2023-06-22T10:58:14;11.60;;;5.30;;
24517;SDS011;12678;51.336;12.406;2023-06-22T11:00:40;9.63;;;4.85;;
24517;SDS011;12678;51.336;12.406;2023-06-22T11:03:06;6.60;;;4.85;;
24517;SDS011;12678;51.336;12.406;2023-06-22T11:05:31;5.93;;;4.15;;
24517;SDS011;12678;51.336;12.406;2023-06-22T11:07:57;7.15;;;4.30;;
24517;SDS011;12678;51.336;12.406;2023-06-22T11:10:23;6.65;;;4.68;;
24517;SDS011;12678;51.336;12.406;2023-06-22T11:12:49;8.57;;;4.25;;
24517;SDS011;12678;51.336;12.406;2023-06-22T11:15:14;7.15;;;4.57;;
24517;SDS011;12678;51.336;12.406;2023-06-22T11:17:40;5.38;;;4.18;;
24517;SDS011;12678;51.336;12.406;2023-06-22T11:20:06;5.75;;;4.35;;
24517;SDS011;12678;51.336;12.406;2023-06-22T11:22:35;6.72;;;4.80;;
24517;SDS011;12678;51.336;12.406;2023-06-22T11:25:02;9.20;;;4.68;;
24517;SDS011;12678;51.336;12.406;2023-06-22T11:27:28;7.05;;;4.90;;
24517;SDS011;12678;51.336;12.406;2023-06-22T11:29:54;8.02;;;4.82;;
24517;SDS011;12678;51.336;12.406;2023-06-22T11:32:20;5.72;;;4.07;;
24517;SDS011;12678;51.336;12.406;2023-06-22T11:34:46;9.20;;;4.78;;
24517;SDS011;12678;51.336;12.406;2023-06-22T11:37:11;6.50;;;4.72;;
24517;SDS011;12678;51.336;12.406;2023-06-22T11:39:37;6.15;;;4.57;;
24517;SDS011;12678;51.336;12.406;2023-06-22T11:42:03;6.32;;;4.30;;
24517;SDS011;12678;51.336;12.406;2023-06-22T11:44:29;8.00;;;4.78;;
24517;SDS011;12678;51.336;12.406;2023-06-22T11:46:55;9.25;;;4.60;;
24517;SDS011;12678;51.336;12.406;2023-06-22T11:49:20;6.18;;;4.85;;
24517;SDS011;12678;51.336;12.406;2023-06-22T11:51:46;9.13;;;4.75;;
24517;SDS011;12678;51.336;12.406;2023-06-22T11:54:12;6.68;;;4.75;;
24517;SDS011;12678;51.336;12.406;2023-06-22T11:56:37;6.18;;;5.00;;
24517;SDS011;12678;51.336;12.406;2023-06-22T11:59:03;7.05;;;5.00;;
24517;SDS011;12678;51.336;12.406;2023-06-22T12:01:28;6.07;;;4.80;;
24517;SDS011;12678;51.336;12.406;2023-06-22T12:03:54;8.20;;;4.47;;
24517;SDS011;12678;51.336;12.406;2023-06-22T12:06:20;8.40;;;4.50;;
24517;SDS011;12678;51.336;12.406;2023-06-22T12:08:45;6.10;;;4.43;;
24517;SDS011;12678;51.336;12.406;2023-06-22T12:11:11;8.00;;;4.88;;
24517;SDS011;12678;51.336;12.406;2023-06-22T12:13:36;6.03;;;4.45;;
24517;SDS011;12678;51.336;12.406;2023-06-22T12:16:02;7.22;;;5.15;;
24517;SDS011;12678;51.336;12.406;2023-06-22T12:18:27;7.05;;;4.93;;
24517;SDS011;12678;51.336;12.406;2023-06-22T12:20:53;7.13;;;4.97;;
24517;SDS011;12678;51.336;12.406;2023-06-22T12:23:19;6.32;;;4.95;;
24517;SDS011;12678;51.336;12.406;2023-06-22T12:25:44;6.03;;;4.82;;
24517;SDS011;12678;51.336;12.406;2023-06-22T12:28:10;7.22;;;4.75;;
24517;SDS011;12678;51.336;12.406;2023-06-22T12:30:36;9.93;;;5.32;;
24517;SDS011;12678;51.336;12.406;2023-06-22T12:33:01;9.85;;;4.82;;
24517;SDS011;12678;51.336;12.406;2023-06-22T12:35:27;6.68;;;4.70;;
24517;SDS011;12678;51.336;12.406;2023-06-22T12:37:53;6.55;;;4.95;;
24517;SDS011;12678;51.336;12.406;2023-06-22T12:40:18;8.10;;;5.22;;
24517;SDS011;12678;51.336;12.406;2023-06-22T12:42:44;7.65;;;5.15;;
24517;SDS011;12678;51.336;12.406;2023-06-22T12:45:10;7.05;;;4.90;;
24517;SDS011;12678;51.336;12.406;2023-06-22T12:47:36;6.78;;;4.53;;
24517;SDS011;12678;51.336;12.406;2023-06-22T12:50:02;7.05;;;4.88;;
24517;SDS011;12678;51.336;12.406;2023-06-22T12:52:29;9.18;;;5.28;;
24517;SDS011;12678;51.336;12.406;2023-06-22T12:54:56;10.05;;;5.70;;
24517;SDS011;12678;51.336;12.406;2023-06-22T12:57:22;7.15;;;5.20;;
24517;SDS011;12678;51.336;12.406;2023-06-22T12:59:48;5.82;;;4.95;;
24517;SDS011;12678;51.336;12.406;2023-06-22T13:02:14;6.13;;;4.80;;
24517;SDS011;12678;51.336;12.406;2023-06-22T13:04:39;7.78;;;5.47;;
24517;SDS011;12678;51.336;12.406;2023-06-22T13:07:05;7.10;;;5.32;;
24517;SDS011;12678;51.336;12.406;2023-06-22T13:09:31;5.72;;;4.25;;
24517;SDS011;12678;51.336;12.406;2023-06-22T13:11:56;7.70;;;5.18;;
24517;SDS011;12678;51.336;12.406;2023-06-22T13:14:22;8.10;;;4.80;;
24517;SDS011;12678;51.336;12.406;2023-06-22T13:16:47;7.82;;;4.93;;
24517;SDS011;12678;51.336;12.406;2023-06-22T13:19:13;6.85;;;4.72;;
24517;SDS011;12678;51.336;12.406;2023-06-22T13:21:39;6.50;;;5.07;;
24517;SDS011;12678;51.336;12.406;2023-06-22T13:24:05;7.43;;;4.63;;
24517;SDS011;12678;51.336;12.406;2023-06-22T13:26:31;8.30;;;5.63;;
24517;SDS011;12678;51.336;12.406;2023-06-22T13:28:57;9.55;;;5.40;;
24517;SDS011;12678;51.336;12.406;2023-06-22T13:31:23;5.95;;;4.70;;
24517;SDS011;12678;51.336;12.406;2023-06-22T13:33:48;6.05;;;4.55;;
24517;SDS011;12678;51.336;12.406;2023-06-22T13:36:17;6.78;;;5.18;;
24517;SDS011;12678;51.336;12.406;2023-06-22T13:38:43;8.45;;;5.22;;
24517;SDS011;12678;51.336;12.406;2023-06-22T13:41:09;9.82;;;5.20;;
24517;SDS011;12678;51.336;12.406;2023-06-22T13:43:35;8.32;;;5.45;;
24517;SDS011;12678;51.336;12.406;2023-06-22T13:46:00;6.28;;;5.10;;
24517;SDS011;12678;51.336;12.406;2023-06-22T13:48:26;6.93;;;4.80;;
24517;SDS011;12678;51.336;12.406;2023-06-22T13:50:53;8.15;;;5.55;;
24517;SDS011;12678;51.336;12.406;2023-06-22T13:53:19;15.25;;;5.50;;
24517;SDS011;12678;51.336;12.406;2023-06-22T13:55:45;7.80;;;5.25;;
24517;SDS011;12678;51.336;12.406;2023-06-22T13:58:12;10.15;;;5.40;;
24517;SDS011;12678;51.336;12.406;2023-06-22T14:00:38;7.35;;;4.90;;
24517;SDS011;12678;51.336;12.406;2023-06-22T14:03:04;10.57;;;5.57;;
24517;SDS011;12678;51.336;12.406;2023-06-22T14:05:30;8.40;;;5.20;;
24517;SDS011;12678;51.336;12.406;2023-06-22T14:07:55;10.45;;;6.03;;
24517;SDS011;12678;51.336;12.406;2023-06-22T14:10:21;8.48;;;5.35;;
24517;SDS011;12678;51.336;12.406;2023-06-22T14:12:47;9.20;;;5.50;;
24517;SDS011;12678;51.336;12.406;2023-06-22T14:15:12;10.25;;;5.68;;
24517;SDS011;12678;51.336;12.406;2023-06-22T14:17:38;8.07;;;5.45;;
24517;SDS011;12678;51.336;12.406;2023-06-22T14:20:04;8.38;;;5.45;;
24517;SDS011;12678;51.336;12.406;2023-06-22T14:22:32;7.18;;;5.40;;
24517;SDS011;12678;51.336;12.406;2023-06-22T14:24:58;10.80;;;6.05;;